createdAt,value
2018-10-02T00:02:13.362Z,4.78
2018-10-02T00:04:40.847Z,5.22
2018-10-02T00:07:08.309Z,4.50
2018-10-02T00:09:35.782Z,4.87
2018-10-02T00:12:09.074Z,4.92
2018-10-02T00:14:36.629Z,5.15
2018-10-02T00:17:04.150Z,4.50
2018-10-02T00:19:31.658Z,4.22
2018-10-02T00:21:59.202Z,4.30
2018-10-02T00:24:26.722Z,4.70
2018-10-02T00:26:54.353Z,5.15
2018-10-02T00:29:21.829Z,4.67
2018-10-02T00:31:49.320Z,5.10
2018-10-02T00:34:16.855Z,5.53
2018-10-02T00:36:44.395Z,5.33
2018-10-02T00:39:11.873Z,4.47
2018-10-02T00:41:39.358Z,4.45
2018-10-02T00:44:06.837Z,5.33
2018-10-02T00:46:34.344Z,4.55
2018-10-02T00:49:01.881Z,5.10
2018-10-02T00:51:29.411Z,5.25
2018-10-02T00:53:56.898Z,5.05
2018-10-02T00:56:24.382Z,4.75
2018-10-02T00:58:51.883Z,3.98
2018-10-02T01:01:19.410Z,5.33
2018-10-02T01:03:46.915Z,4.22
2018-10-02T01:06:14.426Z,4.47
2018-10-02T01:08:41.914Z,5.03
2018-10-02T01:11:09.413Z,4.60
2018-10-02T01:13:37.062Z,4.78
2018-10-02T01:16:04.570Z,4.30
2018-10-02T01:18:32.130Z,4.83
2018-10-02T01:20:59.642Z,4.40
2018-10-02T01:23:27.256Z,4.15
2018-10-02T01:25:54.846Z,3.35
2018-10-02T01:28:22.326Z,4.10
2018-10-02T01:30:49.837Z,4.12
2018-10-02T01:33:17.385Z,3.67
2018-10-02T01:35:44.953Z,4.20
2018-10-02T01:38:12.446Z,3.20
2018-10-02T01:40:39.961Z,3.80
2018-10-02T01:43:07.460Z,3.12
2018-10-02T01:45:34.982Z,3.20
2018-10-02T01:48:02.542Z,3.20
2018-10-02T01:50:30.090Z,3.60
2018-10-02T01:52:57.601Z,2.40
2018-10-02T01:55:25.118Z,3.52
2018-10-02T01:57:52.646Z,3.10
2018-10-02T02:00:20.180Z,4.00
2018-10-02T02:02:47.654Z,3.45
2018-10-02T02:05:15.199Z,3.35
2018-10-02T02:07:42.723Z,3.65
2018-10-02T02:10:10.258Z,3.55
2018-10-02T02:12:37.779Z,3.72
2018-10-02T02:15:05.376Z,3.50
2018-10-02T02:17:33.163Z,3.42
2018-10-02T02:20:00.700Z,3.12
2018-10-02T02:22:28.283Z,3.58
2018-10-02T02:24:55.812Z,3.47
2018-10-02T02:27:23.376Z,3.80
2018-10-02T02:29:51.027Z,3.92
2018-10-02T02:32:18.980Z,3.65
2018-10-02T02:34:46.503Z,3.15
2018-10-02T02:37:14.646Z,3.27
2018-10-02T02:39:42.133Z,3.20
2018-10-02T02:42:09.674Z,3.05
2018-10-02T02:44:37.213Z,2.60
2018-10-02T02:47:10.484Z,3.02
2018-10-02T02:49:43.726Z,3.05
2018-10-02T02:52:12.058Z,3.62
2018-10-02T02:54:39.554Z,3.40
2018-10-02T02:57:07.133Z,2.90
2018-10-02T02:59:34.651Z,2.50
2018-10-02T03:02:02.166Z,2.90
2018-10-02T03:04:29.765Z,3.20
2018-10-02T03:06:57.942Z,2.55
2018-10-02T03:09:25.523Z,2.40
2018-10-02T03:11:52.964Z,3.33
2018-10-02T03:14:20.442Z,3.40
2018-10-02T03:16:47.918Z,3.20
2018-10-02T03:19:15.528Z,2.50
2018-10-02T03:21:43.137Z,2.98
2018-10-02T03:24:10.591Z,2.83
2018-10-02T03:26:38.078Z,3.47
2018-10-02T03:29:05.797Z,2.67
2018-10-02T03:31:33.266Z,3.37
2018-10-02T03:34:01.022Z,2.98
2018-10-02T03:36:28.597Z,3.30
2018-10-02T03:38:56.209Z,3.00
2018-10-02T03:41:23.691Z,3.77
2018-10-02T03:43:51.239Z,3.02
2018-10-02T03:46:18.746Z,3.47
2018-10-02T03:48:46.263Z,3.10
2018-10-02T03:51:13.809Z,3.22
2018-10-02T03:53:41.307Z,2.72
2018-10-02T03:56:08.799Z,4.15
2018-10-02T03:58:36.366Z,2.85
2018-10-02T04:01:03.921Z,3.10
2018-10-02T04:03:31.518Z,2.90
2018-10-02T04:05:59.086Z,3.10
2018-10-02T04:08:27.342Z,3.00
2018-10-02T04:10:54.865Z,2.90
2018-10-02T04:13:22.513Z,3.80
2018-10-02T04:15:49.967Z,3.67
2018-10-02T04:18:17.506Z,3.20
2018-10-02T04:20:45.086Z,3.08
2018-10-02T04:23:12.590Z,3.30
2018-10-02T04:25:40.118Z,2.70
2018-10-02T04:28:07.608Z,3.10
2018-10-02T04:30:35.116Z,3.17
2018-10-02T04:33:02.658Z,3.40
2018-10-02T04:35:30.243Z,3.15
2018-10-02T04:37:58.568Z,3.12
2018-10-02T04:40:26.362Z,3.00
2018-10-02T04:42:53.855Z,2.85
2018-10-02T04:45:21.409Z,3.10
2018-10-02T04:47:51.978Z,3.10
2018-10-02T04:50:19.635Z,3.10
2018-10-02T04:52:47.149Z,3.98
2018-10-02T04:55:14.650Z,2.70
2018-10-02T04:57:42.298Z,3.70
2018-10-02T05:00:14.509Z,3.00
2018-10-02T05:02:42.046Z,3.47
2018-10-02T05:05:09.591Z,3.02
2018-10-02T05:07:37.107Z,2.90
2018-10-02T05:10:04.774Z,2.72
2018-10-02T05:12:32.243Z,3.12
2018-10-02T05:14:59.864Z,3.00
2018-10-02T05:17:27.530Z,3.00
2018-10-02T05:19:54.992Z,2.87
2018-10-02T05:22:22.471Z,3.33
2018-10-02T05:24:49.953Z,3.30
2018-10-02T05:27:17.523Z,2.58
2018-10-02T05:29:44.963Z,3.12
2018-10-02T05:32:12.441Z,4.10
2018-10-02T05:34:40.259Z,3.08
2018-10-02T05:37:07.855Z,3.17
2018-10-02T05:39:35.314Z,2.62
2018-10-02T05:42:02.877Z,2.75
2018-10-02T05:44:30.382Z,2.50
2018-10-02T05:46:57.884Z,3.83
2018-10-02T05:49:25.505Z,3.08
2018-10-02T05:51:53.037Z,3.10
2018-10-02T05:54:20.588Z,2.92
2018-10-02T05:56:48.029Z,2.98
2018-10-02T05:59:15.584Z,3.08
2018-10-02T06:01:43.153Z,2.83
2018-10-02T06:04:10.649Z,3.02
2018-10-02T06:06:38.105Z,3.02
2018-10-02T06:09:07.966Z,3.08
2018-10-02T06:11:35.442Z,2.62
2018-10-02T06:14:02.983Z,3.60
2018-10-02T06:16:30.465Z,3.50
2018-10-02T06:18:57.964Z,3.85
2018-10-02T06:21:25.514Z,3.50
2018-10-02T06:23:53.032Z,3.10
2018-10-02T06:26:20.622Z,4.72
2018-10-02T06:28:48.155Z,3.98
2018-10-02T06:31:15.723Z,4.15
2018-10-02T06:33:43.213Z,3.70
2018-10-02T06:36:10.722Z,3.30
2018-10-02T06:38:38.304Z,4.35
2018-10-02T06:41:05.734Z,3.35
2018-10-02T06:43:33.228Z,2.80
2018-10-02T06:46:00.771Z,3.10
2018-10-02T06:48:28.365Z,3.52
2018-10-02T06:50:56.103Z,3.80
2018-10-02T06:53:23.610Z,2.98
2018-10-02T06:55:51.110Z,3.50
2018-10-02T06:58:18.607Z,4.00
2018-10-02T07:00:46.244Z,3.27
2018-10-02T07:03:13.739Z,3.00
2018-10-02T07:05:41.300Z,2.52
2018-10-02T07:08:08.826Z,2.87
2018-10-02T07:10:36.323Z,3.15
2018-10-02T07:13:03.858Z,2.65
2018-10-02T07:15:31.369Z,2.70
2018-10-02T07:17:58.951Z,3.22
2018-10-02T07:20:26.505Z,2.80
2018-10-02T07:22:53.971Z,3.55
2018-10-02T07:25:21.475Z,3.05
2018-10-02T07:27:49.038Z,2.40
2018-10-02T07:30:16.483Z,3.58
2018-10-02T07:32:44.076Z,3.33
2018-10-02T07:35:11.603Z,2.98
2018-10-02T07:37:39.133Z,3.10
2018-10-02T07:40:06.587Z,2.72
2018-10-02T07:42:34.077Z,2.60
2018-10-02T07:45:01.668Z,2.50
2018-10-02T07:47:29.223Z,2.50
2018-10-02T07:49:56.746Z,2.80
2018-10-02T07:52:24.259Z,3.15
2018-10-02T07:54:51.767Z,3.35
2018-10-02T07:57:19.286Z,3.65
2018-10-02T07:59:46.877Z,3.20
2018-10-02T08:02:14.288Z,3.37
2018-10-02T08:04:41.855Z,3.00
2018-10-02T08:07:09.395Z,3.37
2018-10-02T08:09:36.898Z,3.15
2018-10-02T08:12:08.399Z,2.95
2018-10-02T08:14:35.884Z,2.75
2018-10-02T08:17:03.374Z,3.50
2018-10-02T08:19:30.915Z,3.60
2018-10-02T08:21:58.497Z,5.33
2018-10-02T08:24:30.611Z,3.02
2018-10-02T08:26:58.021Z,3.42
2018-10-02T08:29:25.337Z,3.27
2018-10-02T08:31:52.618Z,3.60
2018-10-02T08:34:19.912Z,3.27
2018-10-02T08:36:47.183Z,3.62
2018-10-02T08:39:16.674Z,3.50
2018-10-02T08:41:44.003Z,3.70
2018-10-02T08:44:11.387Z,3.62
2018-10-02T08:46:38.726Z,5.42
2018-10-02T08:49:06.042Z,3.75
2018-10-02T08:51:33.351Z,4.30
2018-10-02T08:54:00.792Z,4.42
2018-10-02T08:56:30.848Z,3.45
2018-10-02T08:58:58.179Z,3.83
2018-10-02T09:01:25.475Z,3.80
2018-10-02T09:03:52.751Z,3.35
2018-10-02T09:06:20.060Z,3.60
2018-10-02T09:08:47.316Z,3.45
2018-10-02T09:11:19.739Z,4.10
2018-10-02T09:13:47.089Z,4.80
2018-10-02T09:16:14.399Z,4.17
2018-10-02T09:18:41.675Z,5.00
2018-10-02T09:21:08.946Z,4.50
2018-10-02T09:23:36.222Z,4.08
2018-10-02T09:26:03.527Z,4.00
2018-10-02T09:28:30.998Z,3.92
2018-10-02T09:31:04.037Z,4.58
2018-10-02T09:33:37.029Z,3.25
2018-10-02T09:36:09.925Z,3.45
2018-10-02T09:38:42.835Z,3.60
2018-10-02T09:41:16.011Z,3.25
2018-10-02T09:43:53.139Z,3.50
2018-10-02T09:46:20.892Z,3.70
2018-10-02T09:48:48.287Z,3.60
2018-10-02T09:51:15.705Z,3.67
2018-10-02T09:53:43.052Z,3.87
2018-10-02T09:56:10.458Z,3.95
2018-10-02T09:58:37.877Z,4.12
2018-10-02T10:01:12.595Z,3.95
2018-10-02T10:03:39.938Z,4.37
2018-10-02T10:06:07.390Z,4.72
2018-10-02T10:08:34.742Z,3.87
2018-10-02T10:11:02.098Z,4.15
2018-10-02T10:13:34.990Z,4.28
2018-10-02T10:16:02.454Z,4.25
2018-10-02T10:18:29.810Z,3.95
2018-10-02T10:20:57.154Z,4.28
2018-10-02T10:23:24.474Z,4.50
2018-10-02T10:25:51.811Z,4.55
2018-10-02T10:28:20.940Z,4.40
2018-10-02T10:30:48.271Z,5.15
2018-10-02T10:33:15.656Z,4.87
2018-10-02T10:35:43.006Z,3.80
2018-10-02T10:38:10.366Z,4.50
2018-10-02T10:40:39.925Z,3.85
2018-10-02T10:43:10.882Z,3.35
2018-10-02T10:45:38.235Z,3.30
2018-10-02T10:48:05.578Z,3.40
2018-10-02T10:50:32.991Z,3.08
2018-10-02T10:53:00.374Z,3.02
2018-10-02T10:55:32.366Z,2.58
2018-10-02T10:57:59.763Z,2.80
2018-10-02T11:00:27.280Z,2.37
2018-10-02T11:02:54.621Z,2.20
2018-10-02T11:05:21.910Z,2.10
2018-10-02T11:07:54.671Z,2.00
2018-10-02T11:10:22.050Z,1.70
2018-10-02T11:12:49.629Z,1.70
2018-10-02T11:15:18.527Z,2.08
2018-10-02T11:17:45.836Z,1.67
2018-10-02T11:20:20.714Z,1.67
2018-10-02T11:22:48.034Z,1.95
2018-10-02T11:25:15.397Z,1.80
2018-10-02T11:27:42.695Z,1.90
2018-10-02T11:30:10.079Z,1.67
2018-10-02T11:32:41.648Z,2.40
2018-10-02T11:35:09.067Z,2.20
2018-10-02T11:37:38.078Z,2.35
2018-10-02T11:40:05.476Z,2.30
2018-10-02T11:42:32.820Z,2.75
2018-10-02T11:45:01.036Z,2.95
2018-10-02T11:47:32.224Z,2.35
2018-10-02T11:49:59.674Z,2.80
2018-10-02T11:52:27.049Z,2.50
2018-10-02T11:54:54.411Z,3.25
2018-10-02T11:57:21.779Z,2.80
2018-10-02T11:59:49.159Z,3.00
2018-10-02T12:02:20.861Z,3.20
2018-10-02T12:04:48.472Z,3.10
2018-10-02T12:07:15.823Z,3.27
2018-10-02T12:09:43.184Z,2.85
2018-10-02T12:12:10.639Z,3.50
2018-10-02T12:14:38.010Z,2.98
2018-10-02T12:17:09.511Z,3.17
2018-10-02T12:19:36.893Z,3.42
2018-10-02T12:22:04.215Z,3.45
2018-10-02T12:24:31.601Z,3.70
2018-10-02T12:26:59.750Z,3.80
2018-10-02T12:29:27.149Z,3.15
2018-10-02T12:31:54.499Z,2.80
2018-10-02T12:34:21.821Z,2.98
2018-10-02T12:36:49.175Z,3.35
2018-10-02T12:39:16.508Z,2.80
2018-10-02T12:41:44.687Z,3.22
2018-10-02T12:44:12.011Z,2.90
2018-10-02T12:46:39.301Z,3.45
2018-10-02T12:49:06.714Z,2.65
2018-10-02T12:51:34.023Z,2.55
2018-10-02T12:54:01.314Z,3.02
2018-10-02T12:56:28.706Z,2.52
2018-10-02T12:58:56.002Z,2.52
2018-10-02T13:01:23.339Z,2.80
2018-10-02T13:03:50.812Z,3.10
2018-10-02T13:06:18.174Z,2.90
2018-10-02T13:08:45.602Z,3.20
2018-10-02T13:11:12.958Z,3.00
2018-10-02T13:13:40.267Z,3.40
2018-10-02T13:16:07.746Z,3.70
2018-10-02T13:18:35.109Z,3.62
2018-10-02T13:21:02.453Z,3.50
2018-10-02T13:23:29.824Z,4.30
2018-10-02T13:25:57.204Z,4.50
2018-10-02T13:28:24.539Z,4.95
2018-10-02T13:30:51.851Z,4.65
2018-10-02T13:33:19.175Z,4.67
2018-10-02T13:35:46.530Z,5.22
2018-10-02T13:38:13.954Z,5.12
2018-10-02T13:40:41.255Z,5.50
2018-10-02T13:43:08.571Z,5.97
2018-10-02T13:45:35.905Z,6.30
2018-10-02T13:48:03.256Z,6.75
2018-10-02T13:50:30.706Z,7.72
2018-10-02T13:52:58.052Z,8.43
2018-10-02T13:55:25.399Z,7.65
2018-10-02T13:57:52.725Z,11.08
2018-10-02T14:00:20.127Z,11.00
2018-10-02T14:02:47.446Z,11.63
2018-10-02T14:05:14.762Z,12.15
2018-10-02T14:07:42.092Z,12.10
2018-10-02T14:10:09.463Z,12.82
2018-10-02T14:12:36.785Z,12.25
2018-10-02T14:15:04.150Z,12.80
2018-10-02T14:17:31.475Z,12.65
2018-10-02T14:19:58.847Z,13.43
2018-10-02T14:22:26.193Z,13.30
2018-10-02T14:24:53.794Z,14.15
2018-10-02T14:27:21.371Z,12.90
2018-10-02T14:29:48.877Z,13.35
2018-10-02T14:32:16.716Z,13.55
2018-10-02T14:34:44.264Z,14.65
2018-10-02T14:37:11.870Z,14.80
2018-10-02T14:39:39.518Z,14.03
2018-10-02T14:42:08.188Z,14.63
2018-10-02T14:44:36.782Z,15.08
2018-10-02T14:47:04.482Z,15.88
2018-10-02T14:49:32.191Z,15.53
2018-10-02T14:51:59.865Z,16.32
2018-10-02T14:54:27.500Z,16.43
2018-10-02T14:56:55.188Z,16.97
2018-10-02T14:59:22.857Z,16.63
2018-10-02T15:01:50.357Z,16.97
2018-10-02T15:04:17.953Z,16.73
2018-10-02T15:06:45.694Z,17.47
2018-10-02T15:09:13.490Z,17.57
2018-10-02T15:11:41.349Z,19.10
2018-10-02T15:14:08.911Z,17.33
2018-10-02T15:16:37.715Z,16.87
2018-10-02T15:19:13.170Z,16.13
2018-10-02T15:21:40.618Z,16.70
2018-10-02T15:24:07.978Z,18.43
2018-10-02T15:26:35.291Z,17.67
2018-10-02T15:29:02.627Z,16.80
2018-10-02T15:31:30.165Z,16.50
2018-10-02T15:33:57.742Z,17.03
2018-10-02T15:36:25.099Z,17.03
2018-10-02T15:38:52.499Z,15.47
2018-10-02T15:41:20.070Z,16.23
2018-10-02T15:43:47.398Z,15.63
2018-10-02T15:46:14.726Z,15.20
2018-10-02T15:48:42.165Z,15.00
2018-10-02T15:51:09.532Z,15.00
2018-10-02T15:53:36.858Z,13.90
2018-10-02T15:56:04.242Z,13.90
2018-10-02T15:58:31.662Z,14.50
2018-10-02T16:00:59.242Z,13.63
2018-10-02T16:03:26.609Z,13.80
2018-10-02T16:05:53.974Z,13.50
2018-10-02T16:08:21.373Z,13.50
2018-10-02T16:10:48.906Z,14.03
2018-10-02T16:13:16.386Z,13.77
2018-10-02T16:15:43.827Z,13.93
2018-10-02T16:18:11.325Z,13.37
2018-10-02T16:20:38.680Z,13.83
2018-10-02T16:23:06.039Z,14.60
2018-10-02T16:25:33.446Z,13.63
2018-10-02T16:28:01.111Z,13.80
2018-10-02T16:30:28.450Z,14.37
2018-10-02T16:32:56.164Z,15.17
2018-10-02T16:35:23.995Z,16.47
2018-10-02T16:37:51.548Z,16.27
2018-10-02T16:40:19.084Z,15.80
2018-10-02T16:42:46.710Z,15.63
2018-10-02T16:45:14.343Z,16.57
2018-10-02T16:47:41.931Z,16.60
2018-10-02T16:50:09.527Z,16.07
2018-10-02T16:52:37.070Z,15.67
2018-10-02T16:55:04.975Z,14.77
2018-10-02T16:57:32.517Z,15.33
2018-10-02T17:00:00.151Z,15.30
2018-10-02T17:02:27.783Z,16.00
2018-10-02T17:04:55.480Z,15.77
2018-10-02T17:07:23.143Z,16.07
2018-10-02T17:09:50.793Z,15.93
2018-10-02T17:12:18.335Z,21.83
2018-10-02T17:14:46.062Z,20.50
2018-10-02T17:17:13.629Z,16.07
2018-10-02T17:19:41.150Z,14.07
2018-10-02T17:22:08.761Z,15.10
2018-10-02T17:24:36.427Z,17.20
2018-10-02T17:27:03.991Z,14.80
2018-10-02T17:29:31.485Z,15.00
2018-10-02T17:31:59.161Z,15.60
2018-10-02T17:34:26.847Z,14.00
2018-10-02T17:36:54.470Z,15.30
2018-10-02T17:39:21.969Z,16.07
2018-10-02T17:41:49.483Z,14.30
2018-10-02T17:44:17.054Z,13.57
2018-10-02T17:46:44.699Z,15.13
2018-10-02T17:49:12.143Z,14.23
2018-10-02T17:51:39.670Z,14.57
2018-10-02T17:54:07.233Z,14.13
2018-10-02T17:56:34.889Z,13.33
2018-10-02T17:59:02.657Z,13.93
2018-10-02T18:01:30.464Z,13.60
2018-10-02T18:03:58.043Z,11.70
2018-10-02T18:06:25.840Z,10.43
2018-10-02T18:08:53.391Z,9.17
2018-10-02T18:11:20.920Z,8.50
2018-10-02T18:13:48.430Z,7.70
2018-10-02T18:16:16.065Z,6.67
2018-10-02T18:18:43.610Z,6.30
2018-10-02T18:21:11.255Z,6.37
2018-10-02T18:23:38.811Z,5.60
2018-10-02T18:26:06.430Z,5.97
2018-10-02T18:28:34.049Z,5.40
2018-10-02T18:31:01.767Z,5.80
2018-10-02T18:33:30.042Z,4.80
2018-10-02T18:35:58.075Z,4.87
2018-10-02T18:38:25.648Z,4.37
2018-10-02T18:40:53.202Z,5.13
2018-10-02T18:43:20.727Z,4.70
2018-10-02T18:45:48.253Z,4.90
2018-10-02T18:48:16.078Z,4.20
2018-10-02T18:50:43.639Z,5.03
2018-10-02T18:53:11.232Z,4.80
2018-10-02T18:55:38.742Z,4.10
2018-10-02T18:58:06.545Z,5.28
2018-10-02T19:00:34.075Z,4.50
2018-10-02T19:03:01.626Z,3.97
2018-10-02T19:05:29.260Z,3.50
2018-10-02T19:07:56.875Z,2.90
2018-10-02T19:10:24.488Z,2.57
2018-10-02T19:12:52.023Z,3.10
2018-10-02T19:15:19.538Z,2.63
2018-10-02T19:17:47.056Z,3.10
2018-10-02T19:20:20.287Z,3.27
2018-10-02T19:22:47.907Z,3.23
2018-10-02T19:25:21.271Z,3.25
2018-10-02T19:27:48.824Z,3.10
2018-10-02T19:30:22.640Z,3.17
2018-10-02T19:32:50.239Z,3.67
2018-10-02T19:35:17.794Z,2.50
2018-10-02T19:37:51.387Z,3.20
2018-10-02T19:40:18.917Z,3.73
2018-10-02T19:42:46.475Z,3.23
2018-10-02T19:45:19.732Z,4.10
2018-10-02T19:47:47.285Z,5.17
2018-10-02T19:50:14.766Z,4.75
2018-10-02T19:52:42.265Z,4.37
2018-10-02T19:55:09.779Z,4.80
2018-10-02T19:57:37.320Z,4.97
2018-10-02T20:00:05.587Z,4.40
2018-10-02T20:02:33.117Z,5.10
2018-10-02T20:05:00.761Z,5.17
2018-10-02T20:07:28.381Z,5.17
2018-10-02T20:09:55.851Z,5.87
2018-10-02T20:12:23.338Z,6.30
2018-10-02T20:14:50.923Z,5.73
2018-10-02T20:17:18.507Z,4.87
2018-10-02T20:19:46.026Z,6.50
2018-10-02T20:22:13.500Z,4.58
2018-10-02T20:24:41.062Z,4.30
2018-10-02T20:27:08.624Z,3.75
2018-10-02T20:29:36.176Z,4.25
2018-10-02T20:32:03.698Z,3.27
2018-10-02T20:34:31.211Z,3.40
2018-10-02T20:36:58.730Z,3.57
2018-10-02T20:39:26.698Z,4.00
2018-10-02T20:41:54.204Z,3.67
2018-10-02T20:44:21.759Z,3.70
2018-10-02T20:46:49.295Z,3.90
2018-10-02T20:49:16.807Z,2.90
2018-10-02T20:51:44.302Z,3.53
2018-10-02T20:54:11.838Z,3.20
2018-10-02T20:56:39.347Z,4.23
2018-10-02T20:59:06.871Z,2.77
2018-10-02T21:01:34.389Z,3.20
2018-10-02T21:04:01.921Z,3.20
2018-10-02T21:06:29.475Z,3.93
2018-10-02T21:08:57.079Z,3.50
2018-10-02T21:11:24.667Z,3.60
2018-10-02T21:13:52.161Z,4.00
2018-10-02T21:16:19.678Z,3.97
2018-10-02T21:18:47.219Z,3.40
2018-10-02T21:21:14.770Z,4.20
2018-10-02T21:23:42.231Z,3.47
2018-10-02T21:26:09.796Z,3.33
2018-10-02T21:28:37.279Z,3.50
2018-10-02T21:31:05.042Z,3.40
2018-10-02T21:33:32.552Z,3.20
2018-10-02T21:36:00.158Z,3.30
2018-10-02T21:38:27.751Z,3.70
2018-10-02T21:40:55.322Z,3.35
2018-10-02T21:43:22.862Z,3.20
2018-10-02T21:45:50.386Z,3.47
2018-10-02T21:48:17.945Z,3.30
2018-10-02T21:50:45.514Z,3.33
2018-10-02T21:53:13.081Z,3.30
2018-10-02T21:55:40.563Z,2.97
2018-10-02T21:58:08.125Z,3.50
2018-10-02T22:00:35.687Z,3.57
2018-10-02T22:03:03.242Z,3.47
2018-10-02T22:05:30.750Z,3.57
2018-10-02T22:07:58.444Z,3.60
2018-10-02T22:10:27.199Z,3.47
2018-10-02T22:12:55.714Z,3.33
2018-10-02T22:15:23.143Z,4.57
2018-10-02T22:17:50.642Z,3.70
2018-10-02T22:20:18.247Z,4.12
2018-10-02T22:22:45.834Z,5.03
2018-10-02T22:25:13.431Z,5.27
2018-10-02T22:27:40.975Z,5.60
2018-10-02T22:30:09.651Z,5.90
2018-10-02T22:32:37.271Z,5.40
2018-10-02T22:35:04.807Z,5.95
2018-10-02T22:37:32.333Z,5.37
2018-10-02T22:39:59.903Z,5.57
2018-10-02T22:42:27.538Z,6.83
2018-10-02T22:44:55.060Z,6.70
2018-10-02T22:47:22.560Z,7.03
2018-10-02T22:49:50.225Z,7.77
2018-10-02T22:52:17.775Z,7.25
2018-10-02T22:54:45.326Z,7.23
2018-10-02T22:57:12.858Z,7.10
2018-10-02T22:59:40.434Z,7.60
2018-10-02T23:02:08.001Z,7.05
2018-10-02T23:04:35.549Z,7.72
2018-10-02T23:07:03.099Z,6.47
2018-10-02T23:09:30.593Z,7.10
2018-10-02T23:11:58.154Z,7.37
2018-10-02T23:14:25.618Z,6.75
2018-10-02T23:16:53.083Z,6.17
2018-10-02T23:19:20.611Z,6.77
2018-10-02T23:21:48.116Z,7.17
2018-10-02T23:24:15.606Z,6.90
2018-10-02T23:26:43.121Z,6.47
2018-10-02T23:29:10.693Z,6.33
2018-10-02T23:31:38.252Z,7.03
2018-10-02T23:34:06.162Z,6.30
2018-10-02T23:36:33.694Z,6.90
2018-10-02T23:39:01.218Z,5.90
2018-10-02T23:41:28.616Z,6.37
2018-10-02T23:43:56.157Z,6.57
2018-10-02T23:46:23.886Z,6.67
2018-10-02T23:48:51.283Z,6.40
2018-10-02T23:51:18.664Z,6.50
2018-10-02T23:53:46.234Z,6.20
2018-10-02T23:56:13.771Z,5.50
2018-10-02T23:58:41.254Z,6.70
